Time;durP1;ratioP1;P1;durP2;ratioP2;P2;SDS_P1;SDS_P2;PMS_P1;PMS_P2;Temp;Humidity;BMP_temperature;BMP_pressure;BME280_temperature;BME280_humidity;BME280_pressure;Samples;Min_cycle;Max_cycle;Signal;HPM_P1;HPM_P2
2022/11/07 00:00:07;;;;;;;6.63;6.03;;;4.80;99.90;;;;;;5075786;28;20502;-79
2022/11/07 00:02:34;;;;;;;9.53;6.23;;;4.80;99.90;;;;;;5084027;28;21000;-78
2022/11/07 00:05:02;;;;;;;5.80;5.17;;;4.70;99.90;;;;;;5080920;28;20521;-79
2022/11/07 00:07:29;;;;;;;8.47;7.10;;;4.50;99.90;;;;;;5076652;28;20474;-79
2022/11/07 00:09:56;;;;;;;7.00;6.37;;;4.50;99.90;;;;;;5083798;28;20463;-79
2022/11/07 00:12:24;;;;;;;5.63;5.10;;;4.50;99.90;;;;;;5079796;28;20464;-79
2022/11/07 00:14:51;;;;;;;5.23;4.47;;;4.60;99.90;;;;;;5084973;28;20451;-79
2022/11/07 00:17:18;;;;;;;6.70;5.87;;;4.60;99.90;;;;;;5080005;28;20994;-79
2022/11/07 00:19:45;;;;;;;6.70;6.00;;;4.60;99.90;;;;;;5070129;28;20463;-79
2022/11/07 00:22:12;;;;;;;5.37;4.87;;;4.50;99.90;;;;;;5065488;28;20452;-79
2022/11/07 00:24:39;;;;;;;8.73;5.30;;;4.50;99.90;;;;;;5066451;28;20550;-79
2022/11/07 00:27:06;;;;;;;6.00;5.40;;;4.60;99.90;;;;;;5067162;28;20964;-79
2022/11/07 00:29:34;;;;;;;6.50;5.20;;;4.60;99.90;;;;;;5068579;28;20494;-79
2022/11/07 00:32:01;;;;;;;5.90;4.13;;;4.70;99.90;;;;;;5071559;28;20479;-79
2022/11/07 00:34:28;;;;;;;5.37;3.97;;;4.80;99.90;;;;;;5074355;28;20558;-79
2022/11/07 00:36:55;;;;;;;7.20;4.70;;;4.90;99.90;;;;;;5068467;28;20518;-79
2022/11/07 00:39:22;;;;;;;4.93;4.40;;;4.90;99.90;;;;;;5079073;28;20457;-79
2022/11/07 00:41:49;;;;;;;5.50;4.00;;;4.90;99.90;;;;;;5070965;28;20512;-79
2022/11/07 00:44:17;;;;;;;6.03;4.83;;;5.00;99.90;;;;;;5069193;28;20472;-79
2022/11/07 00:46:45;;;;;;;6.10;3.80;;;5.10;99.90;;;;;;5067736;28;20479;-79
2022/11/07 00:49:12;;;;;;;5.63;4.77;;;5.20;99.90;;;;;;5066007;28;20475;-79
2022/11/07 00:51:40;;;;;;;4.50;4.10;;;5.20;99.90;;;;;;5072558;28;20483;-79
2022/11/07 00:54:07;;;;;;;7.70;4.17;;;5.30;99.90;;;;;;5079353;28;20593;-79
2022/11/07 00:56:34;;;;;;;4.37;4.00;;;5.20;99.90;;;;;;5084470;28;20547;-79
2022/11/07 00:59:01;;;;;;;5.97;4.40;;;5.20;99.90;;;;;;5073988;28;20985;-78
2022/11/07 01:01:29;;;;;;;4.83;4.23;;;5.20;99.90;;;;;;5076308;28;20476;-79
2022/11/07 01:06:45;;;;;;;6.40;5.57;;;5.30;99.90;;;;;;5069337;28;20461;-79
2022/11/07 01:09:14;;;;;;;4.53;4.10;;;5.30;99.90;;;;;;5073881;28;20856;-79
2022/11/07 01:11:42;;;;;;;4.97;3.83;;;5.20;99.90;;;;;;5076295;28;20443;-79
2022/11/07 01:14:10;;;;;;;4.97;4.50;;;5.20;99.90;;;;;;5073271;28;20442;-79
2022/11/07 01:16:37;;;;;;;6.03;4.80;;;5.10;99.90;;;;;;5072396;28;20517;-79
2022/11/07 01:19:06;;;;;;;4.40;4.00;;;5.10;99.90;;;;;;5083037;28;20473;-79
2022/11/07 01:21:33;;;;;;;5.73;5.17;;;5.20;99.90;;;;;;5072260;28;20986;-79
2022/11/07 01:24:02;;;;;;;5.77;4.40;;;5.30;99.90;;;;;;5074658;28;20507;-79
2022/11/07 01:26:29;;;;;;;6.93;5.10;;;5.30;99.90;;;;;;5083840;28;20530;-79
2022/11/07 01:28:56;;;;;;;6.10;5.50;;;5.40;99.90;;;;;;5079969;28;20479;-79
2022/11/07 01:31:23;;;;;;;6.93;6.03;;;5.50;99.90;;;;;;5083120;28;20542;-79
2022/11/07 01:33:50;;;;;;;6.27;4.70;;;5.50;99.90;;;;;;5083955;28;20829;-79
2022/11/07 01:36:19;;;;;;;6.30;5.50;;;5.50;99.90;;;;;;5081134;28;20609;-79
2022/11/07 01:38:48;;;;;;;12.20;6.73;;;5.50;99.90;;;;;;5073685;28;20470;-79
2022/11/07 01:41:22;;;;;;;5.47;4.93;;;5.50;99.90;;;;;;5082306;28;20920;-79
2022/11/07 01:43:51;;;;;;;4.73;4.33;;;5.50;99.90;;;;;;5079161;28;20497;-80
2022/11/07 01:46:19;;;;;;;6.33;3.70;;;5.60;99.90;;;;;;5076062;28;20540;-80
2022/11/07 01:48:52;;;;;;;6.10;3.90;;;5.60;99.90;;;;;;5082716;28;21002;-80
2022/11/07 01:51:23;;;;;;;4.87;3.77;;;5.60;99.90;;;;;;5068723;28;20553;-80
2022/11/07 01:53:53;;;;;;;4.23;3.83;;;5.50;99.90;;;;;;5075572;28;20463;-80
2022/11/07 01:56:23;;;;;;;6.63;5.23;;;5.50;99.90;;;;;;5074526;28;20547;-80
2022/11/07 01:58:51;;;;;;;5.17;4.10;;;5.50;99.90;;;;;;5070054;28;20535;-79
2022/11/07 02:01:19;;;;;;;9.43;4.70;;;5.50;99.90;;;;;;5074129;28;20489;-80
2022/11/07 02:03:47;;;;;;;7.10;5.70;;;5.60;99.90;;;;;;5083428;28;20476;-79
2022/11/07 02:06:20;;;;;;;13.70;5.63;;;5.60;99.90;;;;;;5076563;28;21054;-80
2022/11/07 02:08:50;;;;;;;6.60;5.50;;;5.60;99.90;;;;;;5083347;28;20465;-79
2022/11/07 02:11:19;;;;;;;4.93;4.53;;;5.60;99.90;;;;;;5075705;28;20773;-80
2022/11/07 02:13:46;;;;;;;5.33;4.67;;;5.60;99.90;;;;;;5083013;28;20511;-80
2022/11/07 02:16:13;;;;;;;4.30;3.87;;;5.60;99.90;;;;;;5081216;28;20538;-79
2022/11/07 02:18:42;;;;;;;7.73;4.70;;;5.80;99.90;;;;;;5080875;28;21053;-79
2022/11/07 02:21:15;;;;;;;4.20;3.83;;;5.90;99.90;;;;;;5080095;28;20549;-80
2022/11/07 02:23:54;;;;;;;7.13;5.07;;;5.80;99.90;;;;;;5081041;28;20856;-80
2022/11/07 02:26:24;;;;;;;5.43;3.70;;;5.50;99.90;;;;;;5076912;28;20466;-80
2022/11/07 02:28:55;;;;;;;3.70;3.40;;;5.50;99.90;;;;;;5073217;28;20599;-80
2022/11/07 02:31:22;;;;;;;5.10;4.17;;;5.40;99.90;;;;;;5079122;28;20467;-80
2022/11/07 02:33:48;;;;;;;5.73;5.20;;;5.50;99.90;;;;;;5082558;28;20586;-80
2022/11/07 02:36:20;;;;;;;5.83;4.93;;;5.60;99.90;;;;;;5081796;28;20506;-80
2022/11/07 02:38:50;;;;;;;7.10;6.40;;;5.80;99.90;;;;;;5074158;28;20478;-80
2022/11/07 02:41:20;;;;;;;5.33;4.80;;;5.70;99.90;;;;;;5080464;28;20493;-79
2022/11/07 02:43:53;;;;;;;7.30;5.80;;;5.70;99.90;;;;;;5082572;28;20462;-80
2022/11/07 02:46:21;;;;;;;9.37;6.83;;;5.80;99.90;;;;;;5079193;28;20530;-80
2022/11/07 02:48:51;;;;;;;7.97;6.10;;;5.70;99.90;;;;;;5080122;28;20462;-80
2022/11/07 02:51:18;;;;;;;8.27;6.70;;;5.70;99.90;;;;;;5081237;28;20465;-80
2022/11/07 02:53:45;;;;;;;11.77;6.67;;;5.70;99.90;;;;;;5082387;28;20753;-80
2022/11/07 02:56:12;;;;;;;8.97;7.40;;;5.80;99.90;;;;;;5082664;28;20524;-80
2022/11/07 02:58:39;;;;;;;7.53;6.23;;;5.80;99.90;;;;;;5076825;28;20522;-80
2022/11/07 03:01:08;;;;;;;7.23;6.03;;;5.80;99.90;;;;;;5083447;28;20509;-80
2022/11/07 03:03:37;;;;;;;6.87;5.70;;;5.90;99.90;;;;;;5070938;28;20540;-80
2022/11/07 03:06:05;;;;;;;7.60;6.10;;;5.80;99.90;;;;;;5083040;28;20462;-80
2022/11/07 03:08:32;;;;;;;31.70;7.37;;;5.80;99.90;;;;;;5081656;28;20481;-80
2022/11/07 03:10:59;;;;;;;6.43;5.57;;;5.80;99.90;;;;;;5073947;28;20517;-81
2022/11/07 03:13:26;;;;;;;7.70;5.00;;;5.70;99.90;;;;;;5071433;28;20463;-78
2022/11/07 03:15:54;;;;;;;6.90;6.20;;;5.60;99.90;;;;;;5077619;28;20886;-80
2022/11/07 03:18:24;;;;;;;9.23;7.50;;;5.50;99.90;;;;;;5079245;28;20465;-80
2022/11/07 03:20:51;;;;;;;10.20;7.13;;;5.50;99.90;;;;;;5074984;28;20471;-79
2022/11/07 03:23:18;;;;;;;10.10;7.30;;;5.50;99.90;;;;;;5081539;28;20548;-80
2022/11/07 03:25:45;;;;;;;10.80;7.57;;;5.40;99.90;;;;;;5078005;28;20497;-80
2022/11/07 03:28:12;;;;;;;12.63;9.03;;;5.40;99.90;;;;;;5081250;28;20479;-80
2022/11/07 03:30:39;;;;;;;8.77;7.90;;;5.40;99.90;;;;;;5076457;28;21068;-80
2022/11/07 03:33:06;;;;;;;10.43;9.27;;;5.40;99.90;;;;;;5080904;28;20455;-80
2022/11/07 03:35:34;;;;;;;9.40;8.50;;;5.50;99.90;;;;;;5073888;28;20506;-80
2022/11/07 03:38:01;;;;;;;16.37;11.50;;;5.40;99.90;;;;;;5078065;28;20583;-80
2022/11/07 03:40:28;;;;;;;12.23;9.00;;;5.40;99.90;;;;;;5069906;28;20463;-80
2022/11/07 03:42:55;;;;;;;15.17;10.07;;;5.30;99.90;;;;;;5081017;28;20622;-80
2022/11/07 03:45:22;;;;;;;16.80;11.47;;;5.30;99.90;;;;;;5062750;28;20456;-79
2022/11/07 03:47:49;;;;;;;16.73;10.73;;;5.30;99.90;;;;;;5081417;28;20462;-80
2022/11/07 03:50:18;;;;;;;11.60;8.60;;;5.30;99.90;;;;;;5078620;28;20487;-78
2022/11/07 03:52:47;;;;;;;13.40;9.90;;;5.30;99.90;;;;;;5074113;28;20875;-79
2022/11/07 03:55:16;;;;;;;14.90;11.20;;;5.30;99.90;;;;;;5074755;28;20925;-79
2022/11/07 03:57:44;;;;;;;14.70;10.70;;;5.30;99.90;;;;;;5074290;28;20480;-79
2022/11/07 04:00:13;;;;;;;13.77;11.40;;;5.40;99.90;;;;;;5082884;28;20463;-79
2022/11/07 04:02:40;;;;;;;15.30;10.70;;;5.40;99.90;;;;;;5068549;28;20540;-79
2022/11/07 04:05:08;;;;;;;14.27;10.60;;;5.40;99.90;;;;;;5085386;28;20587;-79
2022/11/07 04:07:35;;;;;;;11.60;9.93;;;5.60;99.90;;;;;;5082134;28;21015;-79
2022/11/07 04:10:04;;;;;;;11.50;9.40;;;5.60;99.90;;;;;;5082922;28;20459;-79
2022/11/07 04:18:00;;;;;;;11.50;8.90;;;5.80;99.90;;;;;;5085033;28;20561;-79
2022/11/07 04:20:27;;;;;;;14.83;9.30;;;5.80;99.90;;;;;;5082702;28;20550;-79
2022/11/07 04:22:54;;;;;;;11.27;8.40;;;5.80;99.90;;;;;;5079588;28;20886;-79
2022/11/07 04:27:41;;;;;;;11.47;9.40;;;5.80;99.90;;;;;;5083295;28;20920;-79
2022/11/07 04:28:08;;;;;;;11.87;9.20;;;5.90;99.90;;;;;;5075793;28;20480;-80
2022/11/07 04:30:35;;;;;;;10.60;8.90;;;5.80;99.90;;;;;;5081170;28;20462;-80
2022/11/07 04:33:02;;;;;;;13.70;9.93;;;5.90;99.90;;;;;;5075233;28;20542;-79
2022/11/07 04:35:31;;;;;;;11.90;8.83;;;6.00;99.90;;;;;;5077475;28;20466;-79
2022/11/07 04:37:58;;;;;;;12.57;9.10;;;6.00;99.90;;;;;;5084069;28;20514;-79
2022/11/07 04:40:28;;;;;;;16.30;8.43;;;6.00;99.90;;;;;;5083748;28;21022;-79
2022/11/07 04:42:55;;;;;;;9.37;7.67;;;6.00;99.90;;;;;;5090097;28;20512;-79
2022/11/07 04:45:22;;;;;;;13.40;11.07;;;6.00;99.90;;;;;;5080066;28;22225;-81
2022/11/07 04:47:49;;;;;;;11.33;9.30;;;6.00;99.90;;;;;;5083972;28;20516;-81
2022/11/07 04:50:18;;;;;;;11.57;9.93;;;5.90;99.90;;;;;;5091415;28;20473;-80
2022/11/07 04:52:46;;;;;;;14.93;11.57;;;6.00;99.90;;;;;;5084458;28;20515;-80
2022/11/07 04:55:19;;;;;;;12.57;9.80;;;6.10;99.90;;;;;;5082153;28;20489;-80
2022/11/07 04:57:48;;;;;;;12.97;10.10;;;6.10;99.90;;;;;;5072308;28;20570;-80
2022/11/07 05:00:16;;;;;;;14.87;9.87;;;6.20;99.90;;;;;;5090234;28;20554;-81
2022/11/07 05:02:43;;;;;;;14.07;12.57;;;6.20;99.90;;;;;;5092673;28;20465;-80
2022/11/07 05:05:10;;;;;;;15.63;10.77;;;6.30;99.90;;;;;;5084597;28;20447;-80
2022/11/07 05:07:37;;;;;;;16.80;11.87;;;6.30;99.90;;;;;;5075514;28;20998;-80
2022/11/07 05:10:06;;;;;;;16.23;12.30;;;6.40;99.90;;;;;;5081995;28;20548;-80
2022/11/07 05:12:33;;;;;;;12.27;8.27;;;6.40;99.90;;;;;;5070129;28;20518;-80
2022/11/07 05:15:01;;;;;;;7.27;6.57;;;6.50;99.90;;;;;;5083059;28;20557;-80
2022/11/07 05:17:29;;;;;;;8.40;7.03;;;6.60;99.90;;;;;;5081953;28;20483;-80
2022/11/07 05:19:56;;;;;;;6.30;5.60;;;6.60;99.90;;;;;;5076491;28;20534;-81
2022/11/07 05:25:09;;;;;;;8.83;5.67;;;6.70;99.90;;;;;;5081206;28;20464;-80
2022/11/07 05:27:36;;;;;;;7.40;6.23;;;6.80;99.90;;;;;;5080873;28;21026;-80
2022/11/07 05:30:05;;;;;;;8.40;7.50;;;6.90;99.90;;;;;;5086384;28;20457;-80
2022/11/07 05:32:36;;;;;;;12.20;8.63;;;6.80;99.90;;;;;;5089822;28;20490;-80
2022/11/07 05:35:04;;;;;;;11.67;9.87;;;6.80;99.90;;;;;;5084959;28;20458;-80
2022/11/07 05:37:31;;;;;;;11.50;10.30;;;6.80;99.90;;;;;;5073791;28;20540;-81
2022/11/07 05:39:58;;;;;;;13.20;8.97;;;6.70;99.90;;;;;;5064474;28;20513;-81
2022/11/07 05:42:25;;;;;;;13.67;9.60;;;6.80;99.90;;;;;;5070750;28;20513;-80
2022/11/07 05:44:52;;;;;;;14.43;10.97;;;6.80;99.90;;;;;;5080608;28;20459;-79
2022/11/07 05:47:20;;;;;;;11.00;9.40;;;6.90;99.90;;;;;;5073053;28;20459;-79
2022/11/07 05:49:47;;;;;;;22.50;15.10;;;6.90;99.90;;;;;;5073122;28;20528;-78
2022/11/07 05:52:14;;;;;;;13.30;8.30;;;7.10;99.90;;;;;;5073942;28;20489;-78
2022/11/07 05:54:41;;;;;;;9.43;7.60;;;7.30;99.90;;;;;;5079330;28;20446;-78
2022/11/07 05:57:08;;;;;;;8.77;7.90;;;7.40;99.90;;;;;;5073800;28;20514;-78
2022/11/07 05:59:35;;;;;;;4.17;3.87;;;7.50;99.90;;;;;;5078855;28;21228;-78
2022/11/07 06:02:02;;;;;;;3.83;3.50;;;7.60;99.90;;;;;;5075196;28;20579;-78
2022/11/07 06:04:30;;;;;;;3.30;3.10;;;7.60;99.90;;;;;;5079611;28;20463;-78
2022/11/07 06:06:57;;;;;;;5.80;3.57;;;7.70;99.90;;;;;;5081848;28;20466;-78
2022/11/07 06:09:24;;;;;;;4.73;3.17;;;7.60;99.90;;;;;;5091146;28;21017;-78
2022/11/07 06:11:51;;;;;;;4.60;2.70;;;7.60;99.90;;;;;;5070617;28;20502;-79
2022/11/07 06:14:18;;;;;;;3.20;2.63;;;7.60;99.90;;;;;;5078789;28;20525;-79
2022/11/07 06:16:45;;;;;;;2.60;2.33;;;7.60;99.90;;;;;;5076301;28;20531;-79
2022/11/07 06:19:12;;;;;;;2.30;2.10;;;7.60;99.90;;;;;;5079548;28;20512;-79
2022/11/07 06:21:40;;;;;;;7.23;3.50;;;7.60;99.90;;;;;;5066616;28;20461;-79
2022/11/07 06:24:09;;;;;;;6.20;5.40;;;7.70;99.90;;;;;;5075721;28;20848;-79
2022/11/07 06:26:36;;;;;;;5.83;4.17;;;7.70;99.90;;;;;;5070127;28;20568;-79
2022/11/07 06:29:03;;;;;;;6.03;5.03;;;7.60;99.90;;;;;;5070708;28;20567;-79
2022/11/07 06:31:30;;;;;;;10.27;5.93;;;7.50;99.90;;;;;;5078812;28;21077;-79
2022/11/07 06:33:57;;;;;;;5.70;4.47;;;7.20;99.90;;;;;;5069474;28;20795;-79
2022/11/07 06:36:24;;;;;;;6.97;6.13;;;7.20;99.90;;;;;;5074721;28;20483;-79
2022/11/07 06:38:53;;;;;;;5.80;5.30;;;7.20;99.90;;;;;;5073500;28;20564;-79
2022/11/07 06:41:20;;;;;;;7.97;5.90;;;7.20;99.90;;;;;;5068116;28;20463;-79
2022/11/07 06:43:47;;;;;;;8.47;7.57;;;7.30;99.90;;;;;;5059361;28;20498;-80
2022/11/07 06:46:16;;;;;;;9.90;6.47;;;7.30;99.90;;;;;;5070929;28;20487;-80
2022/11/07 06:48:43;;;;;;;6.77;6.17;;;7.40;99.90;;;;;;5067948;28;20849;-79
2022/11/07 06:51:10;;;;;;;9.67;7.70;;;7.50;99.90;;;;;;5073130;28;22337;-79
2022/11/07 06:53:38;;;;;;;6.80;6.10;;;7.50;99.90;;;;;;5066976;28;20572;-79
2022/11/07 06:56:10;;;;;;;6.83;5.57;;;7.50;99.90;;;;;;5072499;28;20540;-79
2022/11/07 06:58:37;;;;;;;4.73;4.33;;;7.50;99.90;;;;;;5072155;28;20506;-80
2022/11/07 07:01:07;;;;;;;4.03;3.70;;;7.60;99.90;;;;;;5069734;28;20459;-79
2022/11/07 07:03:34;;;;;;;4.20;3.80;;;7.60;99.90;;;;;;5075697;28;20545;-79
2022/11/07 07:06:02;;;;;;;4.03;3.27;;;7.80;99.90;;;;;;5071170;28;20459;-79
2022/11/07 07:08:29;;;;;;;3.83;3.53;;;7.80;99.90;;;;;;5079447;28;20528;-79
2022/11/07 07:10:56;;;;;;;4.60;3.63;;;7.90;99.90;;;;;;5072496;28;20551;-80
2022/11/07 07:13:25;;;;;;;3.57;3.30;;;7.90;99.90;;;;;;5073289;28;20458;-80
2022/11/07 07:15:56;;;;;;;6.10;3.93;;;7.90;99.90;;;;;;5069678;28;20535;-80
2022/11/07 07:18:23;;;;;;;4.27;3.90;;;7.90;99.90;;;;;;5066962;28;20986;-80
2022/11/07 07:20:51;;;;;;;4.00;3.63;;;8.00;99.90;;;;;;5067370;28;20954;-77
2022/11/07 07:23:20;;;;;;;4.73;2.83;;;8.00;99.90;;;;;;5068737;28;20487;-77
2022/11/07 07:25:48;;;;;;;5.03;3.23;;;8.10;99.90;;;;;;5066203;28;20501;-76
2022/11/07 07:28:15;;;;;;;3.57;2.87;;;8.10;99.90;;;;;;5065011;28;20487;-77
2022/11/07 07:30:43;;;;;;;3.53;3.30;;;8.20;99.90;;;;;;5071461;28;21016;-78
2022/11/07 07:33:10;;;;;;;3.30;3.00;;;8.20;99.90;;;;;;5064482;28;21032;-77
2022/11/07 07:35:37;;;;;;;2.93;2.30;;;8.30;99.90;;;;;;5072076;28;20548;-77
2022/11/07 07:38:04;;;;;;;5.07;3.03;;;8.30;99.90;;;;;;5075661;28;20483;-77
2022/11/07 07:40:31;;;;;;;3.87;3.57;;;8.30;99.90;;;;;;5092175;28;20471;-77
2022/11/07 07:42:57;;;;;;;3.43;3.20;;;8.40;99.90;;;;;;5069657;28;20486;-77
2022/11/07 07:45:25;;;;;;;4.00;3.47;;;8.40;99.90;;;;;;5065027;28;20476;-77
2022/11/07 07:47:53;;;;;;;6.10;4.17;;;8.60;99.90;;;;;;5071914;28;20448;-77
2022/11/07 07:50:20;;;;;;;7.60;4.30;;;8.70;99.90;;;;;;5073484;28;20454;-77
2022/11/07 07:52:47;;;;;;;20.40;11.60;;;8.80;99.90;;;;;;5068853;28;20540;-78
2022/11/07 07:55:14;;;;;;;9.60;5.17;;;8.90;99.90;;;;;;5075743;28;20936;-77
2022/11/07 07:57:41;;;;;;;5.47;4.30;;;9.10;99.90;;;;;;5068776;28;20556;-77
2022/11/07 08:00:10;;;;;;;6.70;5.97;;;9.20;99.90;;;;;;5079937;28;20466;-77
2022/11/07 08:02:37;;;;;;;6.07;5.57;;;9.10;99.90;;;;;;5072598;28;20480;-77
2022/11/07 08:05:06;;;;;;;4.50;4.10;;;9.00;99.90;;;;;;5074057;28;20460;-77
2022/11/07 08:07:33;;;;;;;8.80;7.90;;;9.10;99.90;;;;;;5064323;28;20561;-77
2022/11/07 08:10:00;;;;;;;11.60;8.23;;;9.10;99.90;;;;;;5056338;28;20664;-78
2022/11/07 08:12:27;;;;;;;8.90;8.00;;;9.00;99.90;;;;;;5056119;28;22363;-77
2022/11/07 08:14:54;;;;;;;4.53;4.13;;;9.10;99.90;;;;;;5062612;28;20499;-77
2022/11/07 08:17:21;;;;;;;8.30;5.90;;;9.50;99.90;;;;;;5071337;28;20863;-77
2022/11/07 08:19:48;;;;;;;5.50;4.80;;;10.00;99.90;;;;;;5074554;28;20451;-77
2022/11/07 08:22:16;;;;;;;5.10;4.60;;;10.40;99.90;;;;;;5066282;28;20463;-77
2022/11/07 08:24:43;;;;;;;6.27;4.73;;;10.40;99.90;;;;;;5077639;28;20526;-78
2022/11/07 08:27:10;;;;;;;4.90;4.00;;;10.40;99.90;;;;;;5070005;28;20584;-77
2022/11/07 08:29:37;;;;;;;3.17;2.87;;;10.40;99.90;;;;;;5068405;28;20529;-78
2022/11/07 08:32:04;;;;;;;3.83;3.27;;;10.50;99.90;;;;;;5071917;28;20701;-80
2022/11/07 08:34:31;;;;;;;6.97;4.63;;;10.10;99.90;;;;;;5076147;28;20456;-81
2022/11/07 08:36:58;;;;;;;5.43;4.93;;;10.00;99.90;;;;;;5067713;28;21215;-81
2022/11/07 08:39:26;;;;;;;12.23;6.73;;;9.80;99.90;;;;;;5057213;28;20570;-80
2022/11/07 08:41:53;;;;;;;4.90;4.50;;;9.70;99.90;;;;;;5053668;28;20582;-81
2022/11/07 08:44:20;;;;;;;5.40;4.90;;;9.80;99.90;;;;;;5058230;28;20965;-78
2022/11/07 08:46:47;;;;;;;7.17;5.73;;;10.00;99.90;;;;;;5055486;28;20528;-78
2022/11/07 08:49:14;;;;;;;5.90;5.40;;;10.20;99.90;;;;;;5053826;28;20609;-77
2022/11/07 08:51:41;;;;;;;5.97;5.37;;;10.40;99.90;;;;;;5053818;28;20568;-79
2022/11/07 08:54:08;;;;;;;5.27;4.70;;;10.50;99.90;;;;;;5052835;28;20478;-78
2022/11/07 08:56:37;;;;;;;4.70;4.30;;;10.60;99.90;;;;;;5060514;28;20520;-79
2022/11/07 08:59:04;;;;;;;4.20;3.90;;;10.70;99.90;;;;;;5063877;28;20502;-78
2022/11/07 09:01:31;;;;;;;6.37;2.70;;;10.70;99.90;;;;;;5066669;28;20529;-78
2022/11/07 09:03:58;;;;;;;6.90;5.50;;;10.80;99.90;;;;;;5064478;28;20495;-78
2022/11/07 09:06:25;;;;;;;3.03;2.20;;;10.80;99.90;;;;;;5074976;28;20458;-78
2022/11/07 09:08:52;;;;;;;3.13;2.93;;;10.70;99.90;;;;;;5079763;28;20455;-79
2022/11/07 09:11:20;;;;;;;4.23;2.60;;;10.60;99.90;;;;;;5075523;28;20464;-79
2022/11/07 09:13:49;;;;;;;2.97;2.77;;;10.70;99.90;;;;;;5074082;28;20982;-79
2022/11/07 09:16:17;;;;;;;4.83;2.70;;;10.70;99.90;;;;;;5069583;28;20512;-78
2022/11/07 09:18:44;;;;;;;4.60;4.10;;;11.00;99.90;;;;;;5075841;28;20569;-79
2022/11/07 09:21:11;;;;;;;2.77;2.57;;;11.20;99.90;;;;;;5073997;28;21212;-78
2022/11/07 09:23:39;;;;;;;2.70;2.40;;;11.30;99.90;;;;;;5068186;28;20487;-78
2022/11/07 09:26:06;;;;;;;2.20;1.97;;;11.40;99.90;;;;;;5072990;28;20451;-78
2022/11/07 09:28:34;;;;;;;3.57;2.27;;;11.50;99.90;;;;;;5075729;28;20482;-81
2022/11/07 09:31:04;;;;;;;3.57;2.00;;;11.70;99.90;;;;;;5073276;28;20993;-80
2022/11/07 09:33:31;;;;;;;3.90;2.10;;;11.60;99.90;;;;;;5069930;28;20487;-80
2022/11/07 09:35:59;;;;;;;2.10;1.90;;;11.70;99.90;;;;;;5075341;28;20907;-80
2022/11/07 09:38:27;;;;;;;2.03;1.80;;;11.70;99.90;;;;;;5056597;28;20554;-80
2022/11/07 09:41:03;;;;;;;2.10;1.10;;;11.90;99.90;;;;;;5066529;28;21167;-80
2022/11/07 09:44:00;;;;;;;1.43;1.20;;;12.10;99.90;;;;;;5071461;28;20546;-80
2022/11/07 09:46:35;;;;;;;3.17;2.43;;;12.10;99.90;;;;;;5071831;28;20475;-80
2022/11/07 09:49:10;;;;;;;4.17;2.00;;;12.20;99.90;;;;;;5061906;28;20974;-80
2022/11/07 09:51:41;;;;;;;3.50;3.20;;;12.30;99.90;;;;;;5073873;28;20607;-80
2022/11/07 09:54:14;;;;;;;2.43;2.23;;;12.30;99.90;;;;;;5072113;28;20954;-80
2022/11/07 09:56:43;;;;;;;4.93;3.37;;;12.30;99.90;;;;;;5070748;28;20592;-80
2022/11/07 09:59:19;;;;;;;4.17;3.53;;;12.40;99.90;;;;;;5075126;28;20548;-80
2022/11/07 10:01:47;;;;;;;3.80;3.50;;;12.10;99.90;;;;;;5078849;28;20533;-80
2022/11/07 10:04:17;;;;;;;4.00;3.60;;;12.00;99.90;;;;;;5077613;28;20496;-80
2022/11/07 10:06:49;;;;;;;5.57;4.00;;;12.00;99.90;;;;;;5074710;28;20466;-80
2022/11/07 10:09:22;;;;;;;5.67;5.00;;;12.10;99.90;;;;;;5074346;28;20543;-80
2022/11/07 10:11:59;;;;;;;4.17;3.80;;;12.10;99.90;;;;;;5075193;28;20497;-81
2022/11/07 10:14:36;;;;;;;5.47;3.97;;;12.00;99.90;;;;;;5076410;28;20513;-80
2022/11/07 10:17:14;;;;;;;4.87;4.33;;;12.00;99.90;;;;;;5076415;28;20502;-80
2022/11/07 10:20:05;;;;;;;4.87;4.13;;;12.10;99.90;;;;;;5071626;28;20586;-80
2022/11/07 10:22:47;;;;;;;3.40;3.10;;;12.10;99.90;;;;;;5077228;28;20526;-80
2022/11/07 10:25:21;;;;;;;5.30;4.80;;;12.30;99.90;;;;;;5071451;28;20532;-80
2022/11/07 10:27:56;;;;;;;2.67;2.47;;;12.30;99.90;;;;;;5078012;28;20482;-80
2022/11/07 10:30:23;;;;;;;17.03;4.20;;;12.40;99.90;;;;;;5073173;28;20526;-80
2022/11/07 10:33:02;;;;;;;6.27;2.60;;;12.50;99.90;;;;;;5073344;28;20462;-79
2022/11/07 10:35:32;;;;;;;4.10;2.00;;;12.60;99.90;;;;;;5067063;28;20536;-80
2022/11/07 10:38:03;;;;;;;3.13;2.83;;;12.70;99.90;;;;;;5080710;28;20503;-80
2022/11/07 10:40:37;;;;;;;4.00;3.57;;;12.70;99.90;;;;;;5071125;28;20778;-80
2022/11/07 10:43:08;;;;;;;5.50;3.80;;;12.80;99.90;;;;;;5074304;28;20469;-80
2022/11/07 10:45:39;;;;;;;4.10;3.70;;;12.80;99.90;;;;;;5077897;28;20523;-80
2022/11/07 10:48:07;;;;;;;4.80;4.40;;;12.80;99.90;;;;;;5073015;28;20451;-80
2022/11/07 10:50:34;;;;;;;3.60;2.87;;;12.80;99.90;;;;;;5079676;28;20463;-79
2022/11/07 10:53:04;;;;;;;4.30;3.90;;;12.80;99.90;;;;;;5067831;28;20464;-80
2022/11/07 10:55:42;;;;;;;7.67;3.23;;;12.70;99.90;;;;;;5067725;28;20628;-80
2022/11/07 10:58:18;;;;;;;4.77;3.30;;;12.70;99.90;;;;;;5069409;28;21132;-80
2022/11/07 11:00:57;;;;;;;3.83;3.47;;;12.70;99.90;;;;;;5076555;28;20463;-81
2022/11/07 11:03:30;;;;;;;4.00;3.70;;;12.70;99.90;;;;;;5077696;28;20561;-80
2022/11/07 11:06:08;;;;;;;3.53;3.27;;;12.90;99.90;;;;;;5072094;28;20462;-79
2022/11/07 11:08:37;;;;;;;3.73;2.67;;;12.80;99.90;;;;;;5078160;28;20546;-79
2022/11/07 11:11:15;;;;;;;6.10;3.20;;;12.90;99.90;;;;;;5056874;28;20455;-79
2022/11/07 11:13:42;;;;;;;1.93;1.77;;;12.90;99.90;;;;;;5057164;28;20588;-79
2022/11/07 11:16:31;;;;;;;4.60;2.57;;;12.80;99.90;;;;;;5059593;28;21266;-79
2022/11/07 11:19:01;;;;;;;2.13;1.93;;;12.90;99.90;;;;;;5073000;28;20488;-79
2022/11/07 11:21:40;;;;;;;3.63;3.20;;;12.90;99.90;;;;;;5076395;28;20472;-79
2022/11/07 11:24:14;;;;;;;1.60;1.50;;;12.90;99.90;;;;;;5071250;28;20492;-79
2022/11/07 11:26:43;;;;;;;1.90;1.80;;;12.70;99.90;;;;;;5076042;28;20462;-79
2022/11/07 11:29:16;;;;;;;2.43;2.23;;;12.70;99.90;;;;;;5075151;28;20485;-79
2022/11/07 11:31:49;;;;;;;3.00;2.73;;;12.70;99.90;;;;;;5079000;28;20495;-80
2022/11/07 11:34:24;;;;;;;3.00;2.20;;;12.90;99.90;;;;;;5078596;28;20996;-79
2022/11/07 11:36:57;;;;;;;1.43;1.33;;;12.90;99.90;;;;;;5071245;28;20476;-79
2022/11/07 11:39:28;;;;;;;2.47;1.63;;;13.00;99.90;;;;;;5070686;28;20481;-79
2022/11/07 11:41:57;;;;;;;1.77;1.20;;;13.00;99.90;;;;;;5080254;28;20465;-80
2022/11/07 11:44:33;;;;;;;1.87;1.37;;;13.00;99.90;;;;;;5073684;28;20464;-79
2022/11/07 11:47:10;;;;;;;1.47;1.37;;;13.10;99.90;;;;;;5067599;28;20589;-80
2022/11/07 11:49:44;;;;;;;1.53;1.00;;;13.10;99.90;;;;;;5067283;28;20456;-80
2022/11/07 11:52:15;;;;;;;2.30;1.57;;;13.20;99.90;;;;;;5071722;28;20560;-80
2022/11/07 11:54:43;;;;;;;2.23;2.13;;;13.40;99.90;;;;;;5079362;28;20466;-80
2022/11/07 11:57:15;;;;;;;1.40;1.30;;;13.30;99.90;;;;;;5071895;28;20531;-79
2022/11/07 12:00:09;;;;;;;2.30;2.10;;;13.40;99.90;;;;;;5079241;28;20597;-79
2022/11/07 12:02:49;;;;;;;2.07;1.70;;;13.50;99.90;;;;;;5064860;28;20884;-79
2022/11/07 12:05:34;;;;;;;1.93;1.50;;;13.30;99.90;;;;;;5076999;28;20544;-80
2022/11/07 12:08:17;;;;;;;5.73;1.60;;;13.50;99.90;;;;;;5073654;28;20496;-79
2022/11/07 12:10:51;;;;;;;3.53;1.80;;;13.40;99.90;;;;;;5079204;28;21077;-80
2022/11/07 12:13:28;;;;;;;2.10;1.30;;;13.50;99.90;;;;;;5080177;28;20596;-80
2022/11/07 12:16:06;;;;;;;1.53;1.40;;;13.50;99.90;;;;;;5080177;28;20511;-80
2022/11/07 12:18:44;;;;;;;2.60;2.07;;;13.30;99.90;;;;;;5078321;28;20454;-80
2022/11/07 12:21:23;;;;;;;3.00;2.70;;;13.50;99.90;;;;;;5079466;28;21047;-79
2022/11/07 12:24:00;;;;;;;3.00;2.70;;;13.50;99.90;;;;;;5081657;28;20477;-80
2022/11/07 12:26:33;;;;;;;2.97;2.17;;;13.50;99.90;;;;;;5073217;28;20458;-80
2022/11/07 12:29:12;;;;;;;3.17;2.93;;;13.50;99.90;;;;;;5074718;28;20494;-79
2022/11/07 12:31:52;;;;;;;3.13;2.57;;;13.50;99.90;;;;;;5084297;28;20462;-79
2022/11/07 12:34:31;;;;;;;3.03;2.70;;;13.50;99.90;;;;;;5072254;28;20964;-79
2022/11/07 12:37:17;;;;;;;2.90;2.70;;;13.50;99.90;;;;;;5070867;28;20507;-79
2022/11/07 12:39:57;;;;;;;3.10;2.07;;;13.70;99.90;;;;;;5073433;28;20502;-79
2022/11/07 12:42:36;;;;;;;2.37;2.17;;;13.80;99.90;;;;;;5072591;28;21229;-79
2022/11/07 12:45:13;;;;;;;2.60;2.40;;;13.80;99.90;;;;;;5080845;28;20505;-79
2022/11/07 12:47:57;;;;;;;2.07;1.97;;;13.80;99.90;;;;;;5081327;28;20851;-79
2022/11/07 12:50:34;;;;;;;2.17;1.63;;;13.90;99.90;;;;;;5070206;28;20461;-79
2022/11/07 12:53:13;;;;;;;2.70;1.87;;;13.90;99.90;;;;;;5069735;28;21193;-80
2022/11/07 12:55:43;;;;;;;1.50;1.40;;;13.70;99.90;;;;;;5074087;28;20896;-80
2022/11/07 12:58:16;;;;;;;2.40;2.30;;;13.60;99.90;;;;;;5073249;28;20488;-79
2022/11/07 13:00:44;;;;;;;2.47;2.27;;;13.60;99.90;;;;;;5067776;28;20515;-79
2022/11/07 13:03:42;;;;;;;1.50;1.40;;;13.60;99.90;;;;;;5074474;28;20492;-79
2022/11/07 13:06:15;;;;;;;2.40;2.20;;;13.50;99.90;;;;;;5077300;28;20532;-79
2022/11/07 13:08:53;;;;;;;1.90;1.77;;;13.50;99.90;;;;;;5069166;28;20466;-79
2022/11/07 13:11:29;;;;;;;1.73;1.63;;;13.60;99.90;;;;;;5069391;28;21200;-79
2022/11/07 13:14:14;;;;;;;3.17;2.10;;;13.50;99.90;;;;;;5081987;28;20977;-79